sensor_id;sensor_type;location;lat;lon;timestamp;P1;durP1;ratioP1;P2;durP2;ratioP2
13733;SDS011;43298;52.560;13.508;2022-07-25T00:00:38;14.88;;;14.27;;
13733;SDS011;43298;52.560;13.508;2022-07-25T00:03:05;12.48;;;11.98;;
13733;SDS011;43298;52.560;13.508;2022-07-25T00:05:31;11.45;;;10.95;;
13733;SDS011;43298;52.560;13.508;2022-07-25T00:07:57;11.93;;;11.43;;
13733;SDS011;43298;52.560;13.508;2022-07-25T00:10:23;10.55;;;10.15;;
13733;SDS011;43298;52.560;13.508;2022-07-25T00:12:48;12.05;;;11.55;;
13733;SDS011;43298;52.560;13.508;2022-07-25T00:15:14;10.35;;;9.93;;
13733;SDS011;43298;52.560;13.508;2022-07-25T00:17:40;11.23;;;10.73;;
13733;SDS011;43298;52.560;13.508;2022-07-25T00:20:06;10.65;;;10.25;;
13733;SDS011;43298;52.560;13.508;2022-07-25T00:22:33;12.30;;;11.77;;
13733;SDS011;43298;52.560;13.508;2022-07-25T00:24:59;11.27;;;10.77;;
13733;SDS011;43298;52.560;13.508;2022-07-25T00:27:25;13.57;;;12.98;;
13733;SDS011;43298;52.560;13.508;2022-07-25T00:29:51;14.25;;;13.65;;
13733;SDS011;43298;52.560;13.508;2022-07-25T00:32:17;12.65;;;12.15;;
13733;SDS011;43298;52.560;13.508;2022-07-25T00:34:42;13.70;;;13.13;;
13733;SDS011;43298;52.560;13.508;2022-07-25T00:37:09;13.60;;;13.00;;
13733;SDS011;43298;52.560;13.508;2022-07-25T00:39:34;14.48;;;13.88;;
13733;SDS011;43298;52.560;13.508;2022-07-25T00:42:00;13.70;;;13.10;;
13733;SDS011;43298;52.560;13.508;2022-07-25T00:44:30;13.65;;;13.05;;
13733;SDS011;43298;52.560;13.508;2022-07-25T00:46:57;15.18;;;14.57;;
13733;SDS011;43298;52.560;13.508;2022-07-25T00:49:24;12.32;;;11.77;;
13733;SDS011;43298;52.560;13.508;2022-07-25T00:51:50;14.27;;;13.68;;
13733;SDS011;43298;52.560;13.508;2022-07-25T00:54:18;13.38;;;12.80;;
13733;SDS011;43298;52.560;13.508;2022-07-25T00:56:45;13.10;;;12.57;;
13733;SDS011;43298;52.560;13.508;2022-07-25T00:59:11;12.75;;;12.25;;
13733;SDS011;43298;52.560;13.508;2022-07-25T01:01:37;14.32;;;13.63;;
13733;SDS011;43298;52.560;13.508;2022-07-25T01:04:04;11.48;;;10.98;;
13733;SDS011;43298;52.560;13.508;2022-07-25T01:06:30;12.73;;;12.15;;
13733;SDS011;43298;52.560;13.508;2022-07-25T01:08:57;12.93;;;12.43;;
13733;SDS011;43298;52.560;13.508;2022-07-25T01:11:23;12.50;;;11.93;;
13733;SDS011;43298;52.560;13.508;2022-07-25T01:13:49;11.55;;;11.05;;
13733;SDS011;43298;52.560;13.508;2022-07-25T01:16:15;13.05;;;12.45;;
13733;SDS011;43298;52.560;13.508;2022-07-25T01:18:42;13.23;;;12.70;;
13733;SDS011;43298;52.560;13.508;2022-07-25T01:21:08;12.10;;;11.57;;
13733;SDS011;43298;52.560;13.508;2022-07-25T01:23:34;12.20;;;11.70;;
13733;SDS011;43298;52.560;13.508;2022-07-25T01:26:00;13.27;;;12.73;;
13733;SDS011;43298;52.560;13.508;2022-07-25T01:28:26;13.65;;;13.05;;
13733;SDS011;43298;52.560;13.508;2022-07-25T01:30:52;12.98;;;12.48;;
13733;SDS011;43298;52.560;13.508;2022-07-25T01:33:18;13.55;;;12.95;;
13733;SDS011;43298;52.560;13.508;2022-07-25T01:35:45;13.93;;;13.32;;
13733;SDS011;43298;52.560;13.508;2022-07-25T01:38:13;14.48;;;13.82;;
13733;SDS011;43298;52.560;13.508;2022-07-25T01:40:40;13.48;;;12.88;;
13733;SDS011;43298;52.560;13.508;2022-07-25T01:43:07;14.15;;;13.55;;
13733;SDS011;43298;52.560;13.508;2022-07-25T01:45:33;13.68;;;13.02;;
13733;SDS011;43298;52.560;13.508;2022-07-25T01:48:00;13.65;;;13.05;;
13733;SDS011;43298;52.560;13.508;2022-07-25T01:50:25;13.20;;;12.70;;
13733;SDS011;43298;52.560;13.508;2022-07-25T01:52:51;13.50;;;12.90;;
13733;SDS011;43298;52.560;13.508;2022-07-25T01:55:17;12.88;;;12.38;;
13733;SDS011;43298;52.560;13.508;2022-07-25T01:57:43;13.18;;;12.65;;
13733;SDS011;43298;52.560;13.508;2022-07-25T02:00:09;13.82;;;13.13;;
13733;SDS011;43298;52.560;13.508;2022-07-25T02:02:39;12.10;;;11.60;;
13733;SDS011;43298;52.560;13.508;2022-07-25T02:05:06;11.95;;;11.45;;
13733;SDS011;43298;52.560;13.508;2022-07-25T02:07:33;12.23;;;11.63;;
13733;SDS011;43298;52.560;13.508;2022-07-25T02:09:59;13.07;;;12.55;;
13733;SDS011;43298;52.560;13.508;2022-07-25T02:12:26;13.00;;;12.45;;
13733;SDS011;43298;52.560;13.508;2022-07-25T02:14:52;11.30;;;10.70;;
13733;SDS011;43298;52.560;13.508;2022-07-25T02:17:17;12.75;;;12.25;;
13733;SDS011;43298;52.560;13.508;2022-07-25T02:19:43;12.55;;;12.00;;
13733;SDS011;43298;52.560;13.508;2022-07-25T02:22:09;11.93;;;11.35;;
13733;SDS011;43298;52.560;13.508;2022-07-25T02:24:34;11.90;;;11.40;;
13733;SDS011;43298;52.560;13.508;2022-07-25T02:27:01;12.50;;;11.93;;
13733;SDS011;43298;52.560;13.508;2022-07-25T02:29:30;12.00;;;11.50;;
13733;SDS011;43298;52.560;13.508;2022-07-25T02:31:56;11.63;;;11.13;;
13733;SDS011;43298;52.560;13.508;2022-07-25T02:34:22;12.15;;;11.55;;
13733;SDS011;43298;52.560;13.508;2022-07-25T02:36:48;11.32;;;10.82;;
13733;SDS011;43298;52.560;13.508;2022-07-25T02:39:14;10.52;;;10.13;;
13733;SDS011;43298;52.560;13.508;2022-07-25T02:41:40;10.55;;;10.05;;
13733;SDS011;43298;52.560;13.508;2022-07-25T02:44:06;10.90;;;10.40;;
13733;SDS011;43298;52.560;13.508;2022-07-25T02:46:32;11.30;;;10.27;;
13733;SDS011;43298;52.560;13.508;2022-07-25T02:48:58;10.13;;;9.63;;
13733;SDS011;43298;52.560;13.508;2022-07-25T02:51:24;8.60;;;8.20;;
13733;SDS011;43298;52.560;13.508;2022-07-25T02:53:50;10.38;;;9.95;;
13733;SDS011;43298;52.560;13.508;2022-07-25T02:56:16;10.60;;;10.20;;
13733;SDS011;43298;52.560;13.508;2022-07-25T02:58:41;10.13;;;9.63;;
13733;SDS011;43298;52.560;13.508;2022-07-25T03:01:07;10.80;;;10.30;;
13733;SDS011;43298;52.560;13.508;2022-07-25T03:03:33;10.68;;;10.20;;
13733;SDS011;43298;52.560;13.508;2022-07-25T03:05:59;10.40;;;9.98;;
13733;SDS011;43298;52.560;13.508;2022-07-25T03:08:25;10.27;;;9.77;;
13733;SDS011;43298;52.560;13.508;2022-07-25T03:10:51;10.48;;;9.98;;
13733;SDS011;43298;52.560;13.508;2022-07-25T03:13:17;9.27;;;8.88;;
13733;SDS011;43298;52.560;13.508;2022-07-25T03:15:43;10.60;;;10.02;;
13733;SDS011;43298;52.560;13.508;2022-07-25T03:18:09;11.32;;;10.82;;
13733;SDS011;43298;52.560;13.508;2022-07-25T03:20:34;10.85;;;10.35;;
13733;SDS011;43298;52.560;13.508;2022-07-25T03:23:00;10.82;;;10.32;;
13733;SDS011;43298;52.560;13.508;2022-07-25T03:25:26;9.68;;;9.27;;
13733;SDS011;43298;52.560;13.508;2022-07-25T03:27:52;10.40;;;9.90;;
13733;SDS011;43298;52.560;13.508;2022-07-25T03:30:18;9.68;;;9.27;;
13733;SDS011;43298;52.560;13.508;2022-07-25T03:32:44;10.82;;;10.23;;
13733;SDS011;43298;52.560;13.508;2022-07-25T03:35:10;10.88;;;10.38;;
13733;SDS011;43298;52.560;13.508;2022-07-25T03:37:36;11.50;;;11.00;;
13733;SDS011;43298;52.560;13.508;2022-07-25T03:40:02;11.48;;;10.88;;
13733;SDS011;43298;52.560;13.508;2022-07-25T03:42:29;11.77;;;10.93;;
13733;SDS011;43298;52.560;13.508;2022-07-25T03:44:54;10.13;;;9.63;;
13733;SDS011;43298;52.560;13.508;2022-07-25T03:47:20;10.88;;;10.48;;
13733;SDS011;43298;52.560;13.508;2022-07-25T03:49:46;11.60;;;11.10;;
13733;SDS011;43298;52.560;13.508;2022-07-25T03:52:12;11.00;;;10.52;;
13733;SDS011;43298;52.560;13.508;2022-07-25T03:54:37;13.15;;;12.55;;
13733;SDS011;43298;52.560;13.508;2022-07-25T03:57:03;11.70;;;11.20;;
13733;SDS011;43298;52.560;13.508;2022-07-25T03:59:29;10.93;;;10.48;;
13733;SDS011;43298;52.560;13.508;2022-07-25T04:01:55;10.15;;;9.75;;
13733;SDS011;43298;52.560;13.508;2022-07-25T04:04:21;11.15;;;10.65;;
13733;SDS011;43298;52.560;13.508;2022-07-25T04:06:47;11.73;;;11.15;;
13733;SDS011;43298;52.560;13.508;2022-07-25T04:09:13;12.15;;;11.65;;
13733;SDS011;43298;52.560;13.508;2022-07-25T04:11:39;11.73;;;11.23;;
13733;SDS011;43298;52.560;13.508;2022-07-25T04:14:06;11.88;;;11.38;;
13733;SDS011;43298;52.560;13.508;2022-07-25T04:16:32;11.85;;;11.35;;
13733;SDS011;43298;52.560;13.508;2022-07-25T04:18:58;11.13;;;10.63;;
13733;SDS011;43298;52.560;13.508;2022-07-25T04:21:24;11.75;;;11.25;;
13733;SDS011;43298;52.560;13.508;2022-07-25T04:23:50;11.95;;;11.45;;
13733;SDS011;43298;52.560;13.508;2022-07-25T04:26:16;12.13;;;11.52;;
13733;SDS011;43298;52.560;13.508;2022-07-25T04:28:42;11.40;;;10.90;;
13733;SDS011;43298;52.560;13.508;2022-07-25T04:31:08;12.93;;;12.35;;
13733;SDS011;43298;52.560;13.508;2022-07-25T04:33:38;12.88;;;12.38;;
13733;SDS011;43298;52.560;13.508;2022-07-25T04:36:04;12.27;;;11.38;;
13733;SDS011;43298;52.560;13.508;2022-07-25T04:38:30;12.27;;;11.73;;
13733;SDS011;43298;52.560;13.508;2022-07-25T04:40:56;12.45;;;11.95;;
13733;SDS011;43298;52.560;13.508;2022-07-25T04:43:23;13.40;;;12.70;;
13733;SDS011;43298;52.560;13.508;2022-07-25T04:45:49;11.93;;;11.43;;
13733;SDS011;43298;52.560;13.508;2022-07-25T04:48:14;11.90;;;11.30;;
13733;SDS011;43298;52.560;13.508;2022-07-25T04:50:40;11.05;;;10.55;;
13733;SDS011;43298;52.560;13.508;2022-07-25T04:53:06;10.32;;;9.93;;
13733;SDS011;43298;52.560;13.508;2022-07-25T04:55:32;10.43;;;10.02;;
13733;SDS011;43298;52.560;13.508;2022-07-25T04:57:58;11.32;;;10.82;;
13733;SDS011;43298;52.560;13.508;2022-07-25T05:00:24;10.68;;;10.18;;
13733;SDS011;43298;52.560;13.508;2022-07-25T05:02:51;11.75;;;11.25;;
13733;SDS011;43298;52.560;13.508;2022-07-25T05:05:17;13.55;;;12.35;;
13733;SDS011;43298;52.560;13.508;2022-07-25T05:07:44;12.20;;;11.65;;
13733;SDS011;43298;52.560;13.508;2022-07-25T05:10:10;13.20;;;12.60;;
13733;SDS011;43298;52.560;13.508;2022-07-25T05:12:36;13.75;;;13.15;;
13733;SDS011;43298;52.560;13.508;2022-07-25T05:15:03;13.85;;;13.25;;
13733;SDS011;43298;52.560;13.508;2022-07-25T05:17:30;14.93;;;14.13;;
13733;SDS011;43298;52.560;13.508;2022-07-25T05:19:57;14.10;;;13.50;;
13733;SDS011;43298;52.560;13.508;2022-07-25T05:22:23;14.75;;;14.05;;
13733;SDS011;43298;52.560;13.508;2022-07-25T05:24:49;13.80;;;13.20;;
13733;SDS011;43298;52.560;13.508;2022-07-25T05:27:15;13.75;;;13.15;;
13733;SDS011;43298;52.560;13.508;2022-07-25T05:29:40;13.45;;;12.85;;
13733;SDS011;43298;52.560;13.508;2022-07-25T05:32:06;12.77;;;11.55;;
13733;SDS011;43298;52.560;13.508;2022-07-25T05:34:32;11.68;;;11.18;;
13733;SDS011;43298;52.560;13.508;2022-07-25T05:36:58;12.40;;;11.40;;
13733;SDS011;43298;52.560;13.508;2022-07-25T05:39:36;12.70;;;12.00;;
13733;SDS011;43298;52.560;13.508;2022-07-25T05:42:04;11.80;;;11.30;;
13733;SDS011;43298;52.560;13.508;2022-07-25T05:44:33;12.65;;;12.10;;
13733;SDS011;43298;52.560;13.508;2022-07-25T05:46:59;12.23;;;11.73;;
13733;SDS011;43298;52.560;13.508;2022-07-25T05:49:25;11.40;;;10.90;;
13733;SDS011;43298;52.560;13.508;2022-07-25T05:51:51;11.63;;;11.13;;
13733;SDS011;43298;52.560;13.508;2022-07-25T05:54:17;11.32;;;10.82;;
13733;SDS011;43298;52.560;13.508;2022-07-25T05:56:42;11.50;;;11.00;;
13733;SDS011;43298;52.560;13.508;2022-07-25T05:59:08;12.35;;;11.85;;
13733;SDS011;43298;52.560;13.508;2022-07-25T06:01:34;11.48;;;10.98;;
13733;SDS011;43298;52.560;13.508;2022-07-25T06:04:00;13.27;;;12.68;;
13733;SDS011;43298;52.560;13.508;2022-07-25T06:06:25;13.75;;;13.15;;
13733;SDS011;43298;52.560;13.508;2022-07-25T06:08:51;13.52;;;12.93;;
13733;SDS011;43298;52.560;13.508;2022-07-25T06:11:17;13.88;;;13.23;;
13733;SDS011;43298;52.560;13.508;2022-07-25T06:13:43;14.82;;;14.20;;
13733;SDS011;43298;52.560;13.508;2022-07-25T06:16:08;16.02;;;15.32;;
13733;SDS011;43298;52.560;13.508;2022-07-25T06:18:34;16.73;;;16.02;;
13733;SDS011;43298;52.560;13.508;2022-07-25T06:21:00;18.13;;;17.38;;
13733;SDS011;43298;52.560;13.508;2022-07-25T06:23:26;17.75;;;16.85;;
13733;SDS011;43298;52.560;13.508;2022-07-25T06:25:51;13.88;;;13.27;;
13733;SDS011;43298;52.560;13.508;2022-07-25T06:28:17;12.07;;;11.55;;
13733;SDS011;43298;52.560;13.508;2022-07-25T06:30:43;12.95;;;12.35;;
13733;SDS011;43298;52.560;13.508;2022-07-25T06:33:10;13.98;;;13.30;;
13733;SDS011;43298;52.560;13.508;2022-07-25T06:35:37;19.50;;;18.70;;
13733;SDS011;43298;52.560;13.508;2022-07-25T06:38:02;15.02;;;14.35;;
13733;SDS011;43298;52.560;13.508;2022-07-25T06:40:28;16.83;;;16.02;;
13733;SDS011;43298;52.560;13.508;2022-07-25T06:42:55;17.80;;;16.98;;
13733;SDS011;43298;52.560;13.508;2022-07-25T06:45:21;18.95;;;18.05;;
13733;SDS011;43298;52.560;13.508;2022-07-25T06:47:47;17.35;;;16.20;;
13733;SDS011;43298;52.560;13.508;2022-07-25T06:50:14;17.52;;;16.70;;
13733;SDS011;43298;52.560;13.508;2022-07-25T06:52:45;17.08;;;16.33;;
13733;SDS011;43298;52.560;13.508;2022-07-25T06:55:12;18.52;;;17.73;;
13733;SDS011;43298;52.560;13.508;2022-07-25T06:57:39;17.90;;;17.10;;
13733;SDS011;43298;52.560;13.508;2022-07-25T07:00:07;17.05;;;16.25;;
13733;SDS011;43298;52.560;13.508;2022-07-25T07:02:46;17.88;;;17.08;;
13733;SDS011;43298;52.560;13.508;2022-07-25T07:05:16;19.40;;;18.60;;
13733;SDS011;43298;52.560;13.508;2022-07-25T07:07:42;19.67;;;18.85;;
13733;SDS011;43298;52.560;13.508;2022-07-25T07:10:08;22.38;;;21.40;;
13733;SDS011;43298;52.560;13.508;2022-07-25T07:12:34;21.70;;;20.67;;
13733;SDS011;43298;52.560;13.508;2022-07-25T07:15:00;22.77;;;21.67;;
13733;SDS011;43298;52.560;13.508;2022-07-25T07:17:25;23.73;;;22.73;;
13733;SDS011;43298;52.560;13.508;2022-07-25T07:19:51;23.75;;;22.75;;
13733;SDS011;43298;52.560;13.508;2022-07-25T07:22:17;24.40;;;23.40;;
13733;SDS011;43298;52.560;13.508;2022-07-25T07:24:42;23.95;;;22.95;;
13733;SDS011;43298;52.560;13.508;2022-07-25T07:27:08;23.60;;;22.60;;
13733;SDS011;43298;52.560;13.508;2022-07-25T07:29:34;23.85;;;22.85;;
13733;SDS011;43298;52.560;13.508;2022-07-25T07:32:00;22.25;;;21.30;;
13733;SDS011;43298;52.560;13.508;2022-07-25T07:34:25;21.40;;;20.50;;
13733;SDS011;43298;52.560;13.508;2022-07-25T07:36:51;21.15;;;20.25;;
13733;SDS011;43298;52.560;13.508;2022-07-25T07:39:17;24.27;;;23.20;;
13733;SDS011;43298;52.560;13.508;2022-07-25T07:41:43;26.42;;;25.23;;
13733;SDS011;43298;52.560;13.508;2022-07-25T07:44:09;25.23;;;24.15;;
13733;SDS011;43298;52.560;13.508;2022-07-25T07:46:35;24.23;;;23.05;;
13733;SDS011;43298;52.560;13.508;2022-07-25T07:49:01;27.27;;;26.05;;
13733;SDS011;43298;52.560;13.508;2022-07-25T07:51:27;28.73;;;27.42;;
13733;SDS011;43298;52.560;13.508;2022-07-25T07:53:52;36.15;;;34.55;;
13733;SDS011;43298;52.560;13.508;2022-07-25T07:56:37;31.55;;;30.15;;
13733;SDS011;43298;52.560;13.508;2022-07-25T07:59:03;25.60;;;24.50;;
13733;SDS011;43298;52.560;13.508;2022-07-25T08:01:28;32.63;;;31.23;;
13733;SDS011;43298;52.560;13.508;2022-07-25T08:03:55;26.27;;;24.95;;
13733;SDS011;43298;52.560;13.508;2022-07-25T08:06:21;23.50;;;22.40;;
13733;SDS011;43298;52.560;13.508;2022-07-25T08:08:47;22.27;;;21.27;;
13733;SDS011;43298;52.560;13.508;2022-07-25T08:11:13;21.75;;;20.75;;
13733;SDS011;43298;52.560;13.508;2022-07-25T08:13:38;22.77;;;21.77;;
13733;SDS011;43298;52.560;13.508;2022-07-25T08:16:04;20.90;;;20.00;;
13733;SDS011;43298;52.560;13.508;2022-07-25T08:18:31;20.75;;;19.83;;
13733;SDS011;43298;52.560;13.508;2022-07-25T08:20:58;20.75;;;19.85;;
13733;SDS011;43298;52.560;13.508;2022-07-25T08:23:27;19.10;;;18.20;;
13733;SDS011;43298;52.560;13.508;2022-07-25T08:25:53;21.45;;;20.48;;
13733;SDS011;43298;52.560;13.508;2022-07-25T08:28:18;21.58;;;20.38;;
13733;SDS011;43298;52.560;13.508;2022-07-25T08:30:44;20.73;;;19.83;;
13733;SDS011;43298;52.560;13.508;2022-07-25T08:33:11;21.88;;;20.88;;
13733;SDS011;43298;52.560;13.508;2022-07-25T08:35:44;22.52;;;21.52;;
13733;SDS011;43298;52.560;13.508;2022-07-25T08:38:12;20.13;;;19.13;;
13733;SDS011;43298;52.560;13.508;2022-07-25T08:40:38;21.05;;;20.08;;
13733;SDS011;43298;52.560;13.508;2022-07-25T08:43:04;19.75;;;18.95;;
13733;SDS011;43298;52.560;13.508;2022-07-25T08:45:30;20.33;;;19.45;;
13733;SDS011;43298;52.560;13.508;2022-07-25T08:47:57;22.95;;;21.85;;
13733;SDS011;43298;52.560;13.508;2022-07-25T08:50:26;23.23;;;22.23;;
13733;SDS011;43298;52.560;13.508;2022-07-25T08:52:53;22.40;;;21.40;;
13733;SDS011;43298;52.560;13.508;2022-07-25T08:55:20;21.60;;;20.60;;
13733;SDS011;43298;52.560;13.508;2022-07-25T08:57:48;21.50;;;20.60;;
13733;SDS011;43298;52.560;13.508;2022-07-25T09:00:18;22.52;;;21.08;;
13733;SDS011;43298;52.560;13.508;2022-07-25T09:02:54;21.83;;;20.83;;
13733;SDS011;43298;52.560;13.508;2022-07-25T09:05:26;20.58;;;19.67;;
13733;SDS011;43298;52.560;13.508;2022-07-25T09:07:54;20.77;;;19.77;;
13733;SDS011;43298;52.560;13.508;2022-07-25T09:10:22;21.42;;;20.45;;
13733;SDS011;43298;52.560;13.508;2022-07-25T09:15:26;20.15;;;19.25;;
13733;SDS011;43298;52.560;13.508;2022-07-25T09:17:53;18.90;;;18.10;;
13733;SDS011;43298;52.560;13.508;2022-07-25T09:20:21;20.73;;;19.83;;
13733;SDS011;43298;52.560;13.508;2022-07-25T09:22:47;22.98;;;21.88;;
13733;SDS011;43298;52.560;13.508;2022-07-25T09:25:20;20.60;;;19.70;;
13733;SDS011;43298;52.560;13.508;2022-07-25T09:27:52;22.50;;;21.50;;
13733;SDS011;43298;52.560;13.508;2022-07-25T09:30:18;22.55;;;21.45;;
13733;SDS011;43298;52.560;13.508;2022-07-25T09:32:44;23.73;;;22.73;;
13733;SDS011;43298;52.560;13.508;2022-07-25T09:35:10;22.98;;;21.98;;
13733;SDS011;43298;52.560;13.508;2022-07-25T09:37:36;23.45;;;22.45;;
13733;SDS011;43298;52.560;13.508;2022-07-25T09:40:10;21.20;;;20.30;;
13733;SDS011;43298;52.560;13.508;2022-07-25T09:42:39;22.00;;;21.00;;
13733;SDS011;43298;52.560;13.508;2022-07-25T09:45:13;23.38;;;22.27;;
13733;SDS011;43298;52.560;13.508;2022-07-25T09:50:19;24.88;;;23.67;;
13733;SDS011;43298;52.560;13.508;2022-07-25T09:52:48;25.20;;;24.10;;
13733;SDS011;43298;52.560;13.508;2022-07-25T09:55:22;27.92;;;26.73;;
13733;SDS011;43298;52.560;13.508;2022-07-25T09:57:49;23.17;;;21.95;;
13733;SDS011;43298;52.560;13.508;2022-07-25T10:00:19;24.50;;;23.35;;
13733;SDS011;43298;52.560;13.508;2022-07-25T10:08:04;25.10;;;23.70;;
13733;SDS011;43298;52.560;13.508;2022-07-25T10:10:39;24.67;;;23.67;;
13733;SDS011;43298;52.560;13.508;2022-07-25T10:15:50;25.00;;;23.90;;
13733;SDS011;43298;52.560;13.508;2022-07-25T10:18:18;27.60;;;26.30;;
13733;SDS011;43298;52.560;13.508;2022-07-25T10:20:48;29.40;;;28.02;;
13733;SDS011;43298;52.560;13.508;2022-07-25T10:23:19;26.60;;;25.30;;
13733;SDS011;43298;52.560;13.508;2022-07-25T10:26:05;29.05;;;27.45;;
13733;SDS011;43298;52.560;13.508;2022-07-25T10:28:45;30.27;;;28.98;;
13733;SDS011;43298;52.560;13.508;2022-07-25T10:31:15;29.88;;;28.50;;
13733;SDS011;43298;52.560;13.508;2022-07-25T10:33:45;28.67;;;27.35;;
13733;SDS011;43298;52.560;13.508;2022-07-25T10:36:18;28.23;;;26.92;;
13733;SDS011;43298;52.560;13.508;2022-07-25T10:38:45;32.15;;;30.75;;
13733;SDS011;43298;52.560;13.508;2022-07-25T10:41:12;31.02;;;29.65;;
13733;SDS011;43298;52.560;13.508;2022-07-25T10:43:42;33.42;;;31.85;;
13733;SDS011;43298;52.560;13.508;2022-07-25T10:46:11;96.50;;;91.07;;
13733;SDS011;43298;52.560;13.508;2022-07-25T10:48:42;31.73;;;30.33;;
13733;SDS011;43298;52.560;13.508;2022-07-25T10:51:09;30.08;;;28.77;;
13733;SDS011;43298;52.560;13.508;2022-07-25T10:53:46;31.65;;;30.23;;
13733;SDS011;43298;52.560;13.508;2022-07-25T10:58:58;29.73;;;28.40;;
13733;SDS011;43298;52.560;13.508;2022-07-25T11:04:00;27.00;;;25.83;;
13733;SDS011;43298;52.560;13.508;2022-07-25T11:06:39;26.23;;;25.02;;
13733;SDS011;43298;52.560;13.508;2022-07-25T11:09:17;28.02;;;26.77;;
13733;SDS011;43298;52.560;13.508;2022-07-25T11:11:52;35.25;;;33.45;;
13733;SDS011;43298;52.560;13.508;2022-07-25T11:14:25;28.67;;;27.27;;
13733;SDS011;43298;52.560;13.508;2022-07-25T11:19:39;26.23;;;25.08;;
13733;SDS011;43298;52.560;13.508;2022-07-25T11:22:17;26.75;;;25.45;;
13733;SDS011;43298;52.560;13.508;2022-07-25T11:24:44;28.40;;;27.20;;
13733;SDS011;43298;52.560;13.508;2022-07-25T11:27:12;28.83;;;27.42;;
13733;SDS011;43298;52.560;13.508;2022-07-25T11:29:48;29.55;;;28.17;;
13733;SDS011;43298;52.560;13.508;2022-07-25T11:32:15;28.02;;;26.73;;
13733;SDS011;43298;52.560;13.508;2022-07-25T11:34:43;29.25;;;27.85;;
13733;SDS011;43298;52.560;13.508;2022-07-25T11:37:16;26.67;;;25.48;;
13733;SDS011;43298;52.560;13.508;2022-07-25T11:39:43;26.20;;;24.95;;
13733;SDS011;43298;52.560;13.508;2022-07-25T11:42:12;29.33;;;27.98;;
13733;SDS011;43298;52.560;13.508;2022-07-25T11:44:50;28.92;;;27.60;;
13733;SDS011;43298;52.560;13.508;2022-07-25T11:47:24;25.70;;;24.15;;
13733;SDS011;43298;52.560;13.508;2022-07-25T11:49:57;28.92;;;27.63;;
13733;SDS011;43298;52.560;13.508;2022-07-25T11:55:11;30.08;;;28.42;;
13733;SDS011;43298;52.560;13.508;2022-07-25T11:57:41;27.60;;;26.40;;
13733;SDS011;43298;52.560;13.508;2022-07-25T12:00:15;28.73;;;27.33;;
13733;SDS011;43298;52.560;13.508;2022-07-25T12:02:47;29.13;;;27.75;;
13733;SDS011;43298;52.560;13.508;2022-07-25T12:05:15;26.48;;;25.27;;
13733;SDS011;43298;52.560;13.508;2022-07-25T12:07:45;27.70;;;26.30;;
13733;SDS011;43298;52.560;13.508;2022-07-25T12:10:17;27.25;;;26.05;;
13733;SDS011;43298;52.560;13.508;2022-07-25T12:12:51;24.95;;;23.75;;
13733;SDS011;43298;52.560;13.508;2022-07-25T12:15:21;28.48;;;27.17;;
13733;SDS011;43298;52.560;13.508;2022-07-25T12:17:52;28.52;;;27.23;;
13733;SDS011;43298;52.560;13.508;2022-07-25T12:20:21;26.08;;;24.77;;
13733;SDS011;43298;52.560;13.508;2022-07-25T12:22:51;27.42;;;26.25;;
13733;SDS011;43298;52.560;13.508;2022-07-25T12:25:22;26.88;;;25.67;;
13733;SDS011;43298;52.560;13.508;2022-07-25T12:27:49;29.27;;;27.98;;
13733;SDS011;43298;52.560;13.508;2022-07-25T12:30:16;29.58;;;28.27;;
13733;SDS011;43298;52.560;13.508;2022-07-25T12:32:42;25.50;;;24.00;;
13733;SDS011;43298;52.560;13.508;2022-07-25T12:35:09;28.55;;;27.27;;
13733;SDS011;43298;52.560;13.508;2022-07-25T12:37:38;29.13;;;27.85;;
13733;SDS011;43298;52.560;13.508;2022-07-25T12:40:06;31.58;;;30.10;;
13733;SDS011;43298;52.560;13.508;2022-07-25T12:42:33;28.75;;;27.45;;
13733;SDS011;43298;52.560;13.508;2022-07-25T12:44:59;28.50;;;27.20;;
13733;SDS011;43298;52.560;13.508;2022-07-25T12:47:26;27.58;;;26.23;;
13733;SDS011;43298;52.560;13.508;2022-07-25T12:49:52;28.38;;;27.02;;
13733;SDS011;43298;52.560;13.508;2022-07-25T12:52:19;26.92;;;25.80;;
13733;SDS011;43298;52.560;13.508;2022-07-25T12:54:45;28.50;;;27.27;;
13733;SDS011;43298;52.560;13.508;2022-07-25T12:57:12;27.60;;;25.52;;
13733;SDS011;43298;52.560;13.508;2022-07-25T12:59:39;25.52;;;24.33;;
13733;SDS011;43298;52.560;13.508;2022-07-25T13:02:05;28.15;;;26.83;;
13733;SDS011;43298;52.560;13.508;2022-07-25T13:04:32;27.15;;;25.95;;
13733;SDS011;43298;52.560;13.508;2022-07-25T13:06:58;26.10;;;24.90;;
13733;SDS011;43298;52.560;13.508;2022-07-25T13:09:24;27.45;;;26.20;;
13733;SDS011;43298;52.560;13.508;2022-07-25T13:11:51;28.20;;;26.92;;
13733;SDS011;43298;52.560;13.508;2022-07-25T13:14:18;26.25;;;25.15;;
13733;SDS011;43298;52.560;13.508;2022-07-25T13:16:44;27.98;;;26.67;;
13733;SDS011;43298;52.560;13.508;2022-07-25T13:19:11;29.60;;;28.10;;
13733;SDS011;43298;52.560;13.508;2022-07-25T13:21:38;28.10;;;26.85;;
13733;SDS011;43298;52.560;13.508;2022-07-25T13:24:04;27.15;;;25.95;;
13733;SDS011;43298;52.560;13.508;2022-07-25T13:26:31;28.52;;;27.13;;
13733;SDS011;43298;52.560;13.508;2022-07-25T13:28:57;30.73;;;29.33;;
13733;SDS011;43298;52.560;13.508;2022-07-25T13:31:24;30.88;;;29.48;;
13733;SDS011;43298;52.560;13.508;2022-07-25T13:33:50;28.90;;;27.30;;
13733;SDS011;43298;52.560;13.508;2022-07-25T13:36:16;29.65;;;28.35;;
13733;SDS011;43298;52.560;13.508;2022-07-25T13:38:42;30.88;;;29.38;;
13733;SDS011;43298;52.560;13.508;2022-07-25T13:41:10;28.65;;;27.25;;
13733;SDS011;43298;52.560;13.508;2022-07-25T13:43:38;28.38;;;26.75;;
13733;SDS011;43298;52.560;13.508;2022-07-25T13:46:04;28.63;;;27.33;;
13733;SDS011;43298;52.560;13.508;2022-07-25T13:48:30;30.15;;;28.85;;
13733;SDS011;43298;52.560;13.508;2022-07-25T13:50:57;28.00;;;26.70;;
13733;SDS011;43298;52.560;13.508;2022-07-25T13:53:23;27.02;;;25.83;;
13733;SDS011;43298;52.560;13.508;2022-07-25T13:55:49;25.92;;;24.73;;
13733;SDS011;43298;52.560;13.508;2022-07-25T13:58:15;25.52;;;24.42;;
13733;SDS011;43298;52.560;13.508;2022-07-25T14:00:41;27.92;;;26.73;;
13733;SDS011;43298;52.560;13.508;2022-07-25T14:03:07;27.00;;;25.88;;
13733;SDS011;43298;52.560;13.508;2022-07-25T14:05:33;25.42;;;24.33;;
13733;SDS011;43298;52.560;13.508;2022-07-25T14:08:00;25.63;;;24.35;;
13733;SDS011;43298;52.560;13.508;2022-07-25T14:10:26;26.58;;;25.42;;
13733;SDS011;43298;52.560;13.508;2022-07-25T14:12:52;26.00;;;24.90;;
13733;SDS011;43298;52.560;13.508;2022-07-25T14:15:18;28.70;;;27.42;;
13733;SDS011;43298;52.560;13.508;2022-07-25T14:17:44;26.50;;;25.30;;
13733;SDS011;43298;52.560;13.508;2022-07-25T14:20:10;26.38;;;25.23;;
13733;SDS011;43298;52.560;13.508;2022-07-25T14:22:37;26.77;;;25.63;;
13733;SDS011;43298;52.560;13.508;2022-07-25T14:25:04;27.55;;;26.33;;
13733;SDS011;43298;52.560;13.508;2022-07-25T14:27:31;27.27;;;26.08;;
13733;SDS011;43298;52.560;13.508;2022-07-25T14:29:58;30.70;;;29.40;;
13733;SDS011;43298;52.560;13.508;2022-07-25T14:32:24;28.55;;;27.25;;